createdAt,value
2019-02-11T00:00:34.674Z,60.83
2019-02-11T00:03:03.296Z,60.86
2019-02-11T00:05:31.893Z,60.21
2019-02-11T00:08:00.496Z,60.43
2019-02-11T00:10:29.120Z,60.60
2019-02-11T00:12:57.744Z,60.80
2019-02-11T00:15:26.382Z,60.82
2019-02-11T00:17:55.000Z,61.04
2019-02-11T00:20:23.601Z,61.14
2019-02-11T00:22:52.197Z,61.89
2019-02-11T00:25:21.414Z,61.87
2019-02-11T00:27:50.007Z,62.56
2019-02-11T00:30:18.635Z,63.61
2019-02-11T00:32:47.246Z,64.86
2019-02-11T00:35:15.850Z,65.32
2019-02-11T00:37:44.423Z,65.39
2019-02-11T00:40:13.126Z,66.48
2019-02-11T00:42:41.722Z,67.96
2019-02-11T00:45:10.333Z,68.36
2019-02-11T00:47:38.865Z,69.08
2019-02-11T00:50:08.455Z,71.08
2019-02-11T00:52:37.056Z,71.98
2019-02-11T00:55:05.979Z,71.68
2019-02-11T00:57:34.584Z,73.00
2019-02-11T01:00:03.464Z,74.02
2019-02-11T01:02:32.110Z,73.73
2019-02-11T01:05:00.902Z,73.88
2019-02-11T01:07:29.622Z,75.04
2019-02-11T01:09:58.490Z,75.00
2019-02-11T01:12:27.299Z,75.44
2019-02-11T01:14:55.896Z,75.16
2019-02-11T01:17:24.544Z,76.55
2019-02-11T01:19:53.195Z,77.34
2019-02-11T01:22:21.833Z,76.34
2019-02-11T01:24:50.435Z,76.36
2019-02-11T01:27:19.040Z,77.60
2019-02-11T01:29:47.642Z,76.06
2019-02-11T01:32:16.312Z,77.00
2019-02-11T01:34:44.877Z,76.91
2019-02-11T01:37:13.625Z,77.03
2019-02-11T01:39:42.348Z,77.38
2019-02-11T01:42:10.956Z,77.36
2019-02-11T01:44:39.591Z,76.83
2019-02-11T01:47:08.180Z,76.33
2019-02-11T01:49:36.799Z,77.27
2019-02-11T01:52:05.422Z,77.97
2019-02-11T01:54:34.044Z,77.55
2019-02-11T01:57:02.664Z,77.72
2019-02-11T01:59:31.339Z,77.31
2019-02-11T02:01:59.967Z,77.46
2019-02-11T02:04:28.532Z,77.01
2019-02-11T02:06:57.148Z,78.01
2019-02-11T02:09:25.856Z,78.25
2019-02-11T02:11:54.484Z,78.31
2019-02-11T02:14:23.039Z,78.33
2019-02-11T02:16:51.696Z,77.95
2019-02-11T02:19:20.311Z,79.31
2019-02-11T02:21:48.892Z,79.31
2019-02-11T02:24:17.473Z,78.67
2019-02-11T02:26:46.042Z,78.80
2019-02-11T02:29:14.642Z,79.13
2019-02-11T02:31:43.261Z,78.93
2019-02-11T02:34:11.928Z,79.22
2019-02-11T02:36:40.542Z,79.26
2019-02-11T02:39:09.188Z,78.99
2019-02-11T02:41:37.775Z,79.10
2019-02-11T02:44:06.383Z,78.80
2019-02-11T02:46:35.048Z,79.22
2019-02-11T02:49:03.754Z,78.02
2019-02-11T02:51:32.341Z,78.69
2019-02-11T02:54:00.972Z,79.04
2019-02-11T02:56:29.611Z,78.70
2019-02-11T02:58:58.504Z,78.73
2019-02-11T03:01:27.146Z,78.39
2019-02-11T03:03:55.828Z,78.63
2019-02-11T03:06:24.435Z,78.47
2019-02-11T03:08:52.983Z,78.08
2019-02-11T03:11:21.603Z,77.59
2019-02-11T03:13:50.486Z,77.14
2019-02-11T03:16:19.087Z,76.95
2019-02-11T03:18:47.765Z,76.63
2019-02-11T03:21:16.359Z,76.10
2019-02-11T03:23:45.341Z,76.23
2019-02-11T03:26:14.102Z,76.23
2019-02-11T03:28:42.685Z,76.07
2019-02-11T03:31:11.296Z,74.92
2019-02-11T03:33:39.999Z,75.43
2019-02-11T03:36:08.599Z,76.29
2019-02-11T03:38:37.176Z,76.15
2019-02-11T03:41:05.766Z,76.31
2019-02-11T03:43:34.488Z,75.23
2019-02-11T03:46:03.079Z,75.90
2019-02-11T03:48:31.714Z,75.94
2019-02-11T03:51:00.356Z,76.30
2019-02-11T03:53:28.947Z,75.54
2019-02-11T03:55:57.534Z,75.93
2019-02-11T03:58:26.169Z,75.93
2019-02-11T04:00:54.758Z,75.35
2019-02-11T04:03:23.461Z,75.41
2019-02-11T04:05:52.080Z,76.03
2019-02-11T04:08:20.714Z,74.77
2019-02-11T04:10:49.365Z,75.25
2019-02-11T04:13:17.928Z,75.19
2019-02-11T04:15:46.694Z,74.69
2019-02-11T04:18:15.339Z,74.89
2019-02-11T04:20:44.003Z,74.59
2019-02-11T04:23:12.708Z,74.87
2019-02-11T04:25:41.409Z,74.98
2019-02-11T04:28:09.993Z,74.63
2019-02-11T04:30:38.576Z,74.97
2019-02-11T04:33:07.220Z,74.53
2019-02-11T04:35:35.803Z,75.18
2019-02-11T04:38:04.536Z,75.15
2019-02-11T04:40:33.225Z,73.95
2019-02-11T04:43:01.923Z,74.48
2019-02-11T04:45:30.597Z,73.76
2019-02-11T04:47:59.155Z,73.84
2019-02-11T04:50:27.708Z,73.02
2019-02-11T04:52:56.288Z,72.70
2019-02-11T04:55:24.907Z,72.45
2019-02-11T04:57:53.590Z,72.52
2019-02-11T05:00:22.220Z,72.52
2019-02-11T05:02:50.799Z,72.81
2019-02-11T05:05:19.447Z,73.15
2019-02-11T05:07:48.082Z,72.85
2019-02-11T05:10:16.674Z,72.57
2019-02-11T05:12:45.326Z,72.64
2019-02-11T05:15:14.024Z,72.21
2019-02-11T05:17:42.577Z,71.67
2019-02-11T05:20:11.537Z,72.01
2019-02-11T05:22:40.204Z,71.85
2019-02-11T05:25:08.800Z,72.46
2019-02-11T05:27:38.059Z,72.44
2019-02-11T05:30:07.099Z,72.01
2019-02-11T05:32:35.695Z,73.15
2019-02-11T05:35:04.875Z,72.66
2019-02-11T05:37:33.714Z,74.05
2019-02-11T05:40:02.361Z,74.32
2019-02-11T05:42:30.993Z,74.67
2019-02-11T05:44:59.900Z,74.43
2019-02-11T05:47:28.489Z,74.75
2019-02-11T05:49:57.753Z,74.52
2019-02-11T05:52:26.437Z,74.80
2019-02-11T05:54:55.064Z,74.96
2019-02-11T05:57:23.758Z,74.83
2019-02-11T05:59:52.373Z,74.00
2019-02-11T06:02:22.950Z,73.67
2019-02-11T06:04:51.819Z,72.94
2019-02-11T06:07:20.479Z,72.72
2019-02-11T06:09:49.287Z,72.40
2019-02-11T06:12:17.950Z,71.88
2019-02-11T06:14:46.517Z,71.60
2019-02-11T06:17:15.089Z,71.26
2019-02-11T06:19:43.799Z,71.14
2019-02-11T06:22:12.579Z,71.00
2019-02-11T06:24:41.192Z,70.57
2019-02-11T06:27:09.818Z,70.75
2019-02-11T06:29:38.618Z,70.44
2019-02-11T06:32:07.208Z,70.26
2019-02-11T06:34:35.852Z,70.41
2019-02-11T06:37:04.560Z,70.00
2019-02-11T06:39:33.457Z,69.13
2019-02-11T06:42:02.059Z,69.29
2019-02-11T06:44:30.731Z,69.67
2019-02-11T06:46:59.365Z,69.42
2019-02-11T06:49:27.990Z,69.57
2019-02-11T06:51:56.578Z,68.86
2019-02-11T06:54:25.214Z,68.94
2019-02-11T06:56:53.937Z,69.21
2019-02-11T06:59:22.570Z,68.89
2019-02-11T07:01:51.178Z,68.65
2019-02-11T07:04:19.907Z,68.57
2019-02-11T07:06:48.682Z,68.92
2019-02-11T07:09:17.390Z,68.36
2019-02-11T07:11:46.063Z,67.82
2019-02-11T07:14:14.699Z,67.94
2019-02-11T07:16:43.469Z,67.01
2019-02-11T07:19:12.080Z,67.47
2019-02-11T07:21:40.703Z,68.57
2019-02-11T07:24:09.273Z,67.29
2019-02-11T07:26:37.969Z,67.76
2019-02-11T07:29:06.602Z,68.13
2019-02-11T07:31:35.261Z,68.21
2019-02-11T07:34:03.990Z,66.91
2019-02-11T07:36:32.682Z,66.56
2019-02-11T07:39:01.318Z,66.75
2019-02-11T07:41:37.934Z,66.75
2019-02-11T07:44:28.545Z,66.82
2019-02-11T07:47:01.386Z,66.70
2019-02-11T07:49:30.075Z,65.65
2019-02-11T07:51:58.849Z,66.34
2019-02-11T07:54:27.601Z,66.29
2019-02-11T07:56:56.420Z,65.58
2019-02-11T07:59:25.077Z,66.12
2019-02-11T08:01:53.825Z,66.05
2019-02-11T08:04:22.438Z,65.57
2019-02-11T08:06:51.137Z,65.09
2019-02-11T08:09:19.765Z,64.43
2019-02-11T08:11:48.419Z,65.02
2019-02-11T08:14:17.179Z,64.84
2019-02-11T08:16:45.897Z,64.63
2019-02-11T08:19:14.550Z,64.34
2019-02-11T08:21:43.377Z,64.29
2019-02-11T08:24:12.064Z,64.86
2019-02-11T08:26:40.688Z,64.16
2019-02-11T08:29:09.282Z,64.10
2019-02-11T08:31:38.321Z,64.42
2019-02-11T08:34:07.008Z,64.19
2019-02-11T08:36:35.700Z,63.50
2019-02-11T08:39:07.084Z,63.09
2019-02-11T08:41:35.713Z,63.14
2019-02-11T08:44:04.472Z,62.36
2019-02-11T08:46:33.070Z,63.04
2019-02-11T08:49:02.146Z,62.24
2019-02-11T08:51:30.819Z,61.43
2019-02-11T08:53:59.613Z,62.16
2019-02-11T08:56:28.576Z,61.36
2019-02-11T08:58:57.176Z,61.78
2019-02-11T09:01:26.534Z,61.02
2019-02-11T09:03:57.449Z,61.36
2019-02-11T09:06:26.140Z,61.21
2019-02-11T09:08:55.907Z,61.03
2019-02-11T09:11:24.615Z,60.62
2019-02-11T09:13:53.277Z,61.08
2019-02-11T09:16:22.052Z,60.80
2019-02-11T09:18:50.684Z,60.77
2019-02-11T09:21:19.298Z,60.95
2019-02-11T09:23:47.946Z,60.90
2019-02-11T09:26:16.641Z,60.17
2019-02-11T09:28:45.723Z,59.71
2019-02-11T09:31:14.362Z,59.64
2019-02-11T09:33:43.134Z,60.19
2019-02-11T09:36:11.813Z,60.07
2019-02-11T09:38:40.398Z,59.43
2019-02-11T09:41:09.045Z,59.58
2019-02-11T09:43:37.652Z,60.06
2019-02-11T09:46:06.243Z,59.91
2019-02-11T09:48:34.881Z,59.71
2019-02-11T09:51:04.553Z,60.00
2019-02-11T09:53:33.144Z,59.37
2019-02-11T09:56:01.755Z,59.32
2019-02-11T09:58:30.359Z,60.05
2019-02-11T10:00:59.006Z,59.93
2019-02-11T10:03:27.620Z,59.49
2019-02-11T10:05:56.355Z,59.73
2019-02-11T10:08:25.030Z,58.79
2019-02-11T10:10:53.657Z,58.26
2019-02-11T10:13:22.272Z,58.59
2019-02-11T10:15:51.147Z,58.62
2019-02-11T10:18:19.756Z,58.59
2019-02-11T10:20:48.426Z,58.80
2019-02-11T10:23:17.036Z,58.88
2019-02-11T10:25:45.747Z,58.53
2019-02-11T10:28:14.385Z,57.75
2019-02-11T10:30:42.965Z,57.15
2019-02-11T10:33:11.537Z,56.82
2019-02-11T10:35:42.374Z,56.04
2019-02-11T10:38:10.576Z,56.24
2019-02-11T10:40:39.193Z,55.83
2019-02-11T10:43:07.774Z,56.05
2019-02-11T10:45:36.922Z,55.07
2019-02-11T10:48:05.628Z,54.69
2019-02-11T10:50:34.978Z,54.83
2019-02-11T10:53:03.865Z,55.30
2019-02-11T10:55:32.487Z,55.55
2019-02-11T10:58:01.091Z,55.64
2019-02-11T11:00:29.681Z,55.35
2019-02-11T11:02:58.304Z,56.10
2019-02-11T11:05:26.948Z,55.04
2019-02-11T11:07:55.549Z,54.73
2019-02-11T11:10:29.476Z,54.31
2019-02-11T11:12:58.162Z,54.17
2019-02-11T11:15:28.864Z,53.89
2019-02-11T11:17:57.329Z,53.91
2019-02-11T11:20:26.128Z,53.55
2019-02-11T11:22:54.887Z,53.65
2019-02-11T11:25:23.540Z,53.67
2019-02-11T11:27:52.170Z,53.73
2019-02-11T11:30:20.880Z,53.35
2019-02-11T11:32:49.511Z,53.18
2019-02-11T11:35:18.263Z,52.68
2019-02-11T11:37:46.993Z,53.10
2019-02-11T11:40:16.775Z,53.29
2019-02-11T11:42:45.359Z,53.42
2019-02-11T11:45:15.685Z,53.33
2019-02-11T11:47:44.342Z,53.42
2019-02-11T11:50:12.996Z,53.43
2019-02-11T11:52:41.677Z,53.32
2019-02-11T11:55:11.403Z,53.15
2019-02-11T11:57:39.998Z,52.79
2019-02-11T12:00:15.301Z,52.76
2019-02-11T12:03:00.363Z,53.14
2019-02-11T12:05:14.817Z,52.60
2019-02-11T12:07:43.382Z,53.22
2019-02-11T12:10:12.026Z,53.01
2019-02-11T12:12:40.629Z,52.86
2019-02-11T12:15:26.285Z,52.16
2019-02-11T12:17:55.930Z,51.77
2019-02-11T12:20:27.676Z,51.31
2019-02-11T12:22:56.303Z,51.25
2019-02-11T12:25:25.116Z,50.80
2019-02-11T12:27:53.788Z,50.63
2019-02-11T12:30:24.317Z,49.58
2019-02-11T12:32:54.709Z,48.12
2019-02-11T12:35:23.287Z,48.49
2019-02-11T12:37:51.919Z,48.61
2019-02-11T12:40:20.525Z,49.22
2019-02-11T12:42:52.889Z,48.42
2019-02-11T12:45:20.903Z,47.95
2019-02-11T12:47:49.571Z,47.64
2019-02-11T12:50:18.392Z,48.24
2019-02-11T12:52:47.803Z,47.85
2019-02-11T12:55:16.817Z,47.92
2019-02-11T12:57:45.412Z,47.48
2019-02-11T13:00:19.174Z,46.79
2019-02-11T13:02:48.034Z,46.71
2019-02-11T13:05:16.658Z,46.44
2019-02-11T13:07:45.250Z,46.39
2019-02-11T13:10:16.794Z,46.09
2019-02-11T13:12:45.565Z,46.78
2019-02-11T13:15:33.484Z,46.00
2019-02-11T13:17:45.168Z,47.46
2019-02-11T13:20:14.085Z,48.52
2019-02-11T13:22:42.663Z,48.13
2019-02-11T13:25:13.889Z,46.91
2019-02-11T13:27:42.503Z,47.27
2019-02-11T13:30:13.278Z,47.07
2019-02-11T13:32:42.018Z,46.31
2019-02-11T13:35:10.852Z,46.33
2019-02-11T13:37:39.517Z,46.55
2019-02-11T13:40:08.757Z,46.38
2019-02-11T13:42:37.508Z,46.00
2019-02-11T13:45:12.682Z,46.54
2019-02-11T13:47:53.776Z,46.65
2019-02-11T13:50:13.465Z,46.18
2019-02-11T13:52:42.074Z,46.60
2019-02-11T13:55:10.929Z,46.25
2019-02-11T13:57:39.573Z,46.14
2019-02-11T14:00:17.918Z,46.17
2019-02-11T14:02:51.569Z,45.94
2019-02-11T14:05:20.370Z,45.96
2019-02-11T14:07:49.030Z,46.43
2019-02-11T14:10:17.546Z,46.88
2019-02-11T14:12:46.390Z,46.47
2019-02-11T14:15:19.962Z,46.77
2019-02-11T14:17:45.499Z,46.59
2019-02-11T14:20:32.451Z,46.60
2019-02-11T14:23:01.061Z,45.16
2019-02-11T14:25:42.887Z,44.29
2019-02-11T14:28:00.104Z,44.42
2019-02-11T14:30:28.675Z,44.10
2019-02-11T14:32:57.275Z,44.58
2019-02-11T14:35:25.940Z,45.73
2019-02-11T14:37:54.548Z,45.48
2019-02-11T14:40:23.142Z,46.01
2019-02-11T14:42:51.769Z,46.16
2019-02-11T14:45:20.902Z,46.97
2019-02-11T14:47:49.594Z,46.79
2019-02-11T14:50:18.232Z,47.33
2019-02-11T14:52:46.859Z,47.44
2019-02-11T14:55:15.443Z,47.11
2019-02-11T14:57:44.163Z,47.18
2019-02-11T15:00:20.136Z,47.30
2019-02-11T15:02:48.739Z,47.75
2019-02-11T15:05:17.403Z,48.33
2019-02-11T15:07:46.380Z,48.39
2019-02-11T15:10:15.099Z,48.91
2019-02-11T15:12:43.776Z,49.00
2019-02-11T15:15:12.445Z,49.17
2019-02-11T15:17:41.424Z,49.70
2019-02-11T15:20:11.768Z,49.97
2019-02-11T15:22:40.404Z,50.38
2019-02-11T15:25:11.195Z,50.62
2019-02-11T15:27:39.883Z,50.78
2019-02-11T15:30:10.405Z,51.27
2019-02-11T15:32:39.007Z,51.62
2019-02-11T15:35:08.079Z,51.74
2019-02-11T15:37:38.313Z,51.99
2019-02-11T15:40:09.367Z,52.24
2019-02-11T15:42:38.061Z,52.50
2019-02-11T15:45:08.173Z,52.12
2019-02-11T15:47:36.827Z,52.63
2019-02-11T15:50:05.768Z,52.26
2019-02-11T15:52:34.403Z,52.48
2019-02-11T15:55:02.998Z,52.06
2019-02-11T15:57:31.832Z,52.32
2019-02-11T16:00:00.454Z,52.39
2019-02-11T16:02:29.103Z,52.82
2019-02-11T16:05:02.420Z,52.98
2019-02-11T16:07:28.203Z,54.23
2019-02-11T16:09:56.780Z,53.41
2019-02-11T16:12:25.414Z,53.40
2019-02-11T16:14:54.054Z,53.81
2019-02-11T16:17:22.663Z,54.39
2019-02-11T16:19:51.279Z,55.21
2019-02-11T16:22:19.950Z,56.56
2019-02-11T16:24:48.618Z,59.95
2019-02-11T16:27:17.254Z,59.82
2019-02-11T16:29:45.865Z,60.39
2019-02-11T16:32:14.479Z,60.39
2019-02-11T16:34:43.071Z,60.61
2019-02-11T16:37:11.972Z,59.87
2019-02-11T16:39:40.646Z,60.14
2019-02-11T16:42:09.348Z,60.22
2019-02-11T16:44:38.075Z,59.85
2019-02-11T16:47:06.715Z,59.94
2019-02-11T16:49:35.313Z,60.21
2019-02-11T16:52:04.030Z,60.34
2019-02-11T16:54:32.720Z,60.18
2019-02-11T16:57:01.502Z,60.46
2019-02-11T16:59:33.226Z,60.39
2019-02-11T17:02:01.970Z,60.58
2019-02-11T17:04:30.619Z,60.52
2019-02-11T17:06:59.240Z,60.60
2019-02-11T17:09:27.945Z,60.82
2019-02-11T17:11:57.614Z,60.89
2019-02-11T17:14:26.432Z,60.64
2019-02-11T17:16:55.093Z,60.58
2019-02-11T17:19:23.756Z,60.75
2019-02-11T17:21:52.457Z,60.97
2019-02-11T17:24:21.117Z,60.81
2019-02-11T17:26:49.732Z,60.61
2019-02-11T17:29:18.420Z,60.68
2019-02-11T17:31:47.023Z,60.83
2019-02-11T17:34:15.658Z,61.10
2019-02-11T17:36:44.574Z,61.29
2019-02-11T17:39:13.222Z,60.71
2019-02-11T17:41:41.925Z,61.01
2019-02-11T17:44:10.901Z,61.11
2019-02-11T17:46:39.530Z,61.28
2019-02-11T17:49:08.165Z,61.00
2019-02-11T17:51:36.773Z,61.29
2019-02-11T17:54:05.547Z,61.05
2019-02-11T17:56:34.157Z,61.09
2019-02-11T17:59:02.839Z,61.29
2019-02-11T18:01:31.468Z,61.43
2019-02-11T18:04:00.212Z,61.72
2019-02-11T18:06:28.970Z,61.48
2019-02-11T18:08:57.588Z,61.84
2019-02-11T18:11:26.215Z,61.85
2019-02-11T18:13:54.900Z,62.29
2019-02-11T18:16:24.513Z,61.83
2019-02-11T18:18:53.278Z,61.87
2019-02-11T18:21:21.889Z,62.12
2019-02-11T18:23:50.658Z,62.64
2019-02-11T18:26:19.240Z,62.86
2019-02-11T18:28:47.881Z,63.40
2019-02-11T18:31:16.535Z,63.38
2019-02-11T18:33:45.165Z,63.10
2019-02-11T18:36:13.839Z,62.57
2019-02-11T18:38:42.527Z,62.31
2019-02-11T18:41:11.146Z,62.90
2019-02-11T18:43:39.873Z,62.93
2019-02-11T18:46:08.520Z,62.58
2019-02-11T18:48:37.198Z,62.54
2019-02-11T18:51:05.889Z,62.40
2019-02-11T18:53:34.593Z,62.38
2019-02-11T18:56:03.813Z,62.68
2019-02-11T18:58:32.448Z,63.17
2019-02-11T19:01:01.069Z,63.19
2019-02-11T19:03:29.719Z,62.88
2019-02-11T19:05:58.378Z,62.72
2019-02-11T19:08:27.044Z,62.52
2019-02-11T19:10:55.676Z,63.00
2019-02-11T19:13:24.289Z,62.02
2019-02-11T19:15:52.926Z,61.83
2019-02-11T19:18:21.562Z,61.92
2019-02-11T19:20:51.220Z,62.50
2019-02-11T19:23:19.769Z,62.74
2019-02-11T19:25:48.405Z,63.29
2019-02-11T19:28:17.054Z,63.41
2019-02-11T19:30:45.785Z,63.50
2019-02-11T19:33:14.401Z,64.20
2019-02-11T19:35:42.994Z,64.69
2019-02-11T19:38:11.737Z,64.58
2019-02-11T19:40:40.493Z,64.63
2019-02-11T19:43:09.183Z,64.53
2019-02-11T19:45:37.826Z,64.68
2019-02-11T19:48:06.624Z,64.82
2019-02-11T19:50:35.248Z,65.10
2019-02-11T19:53:03.920Z,65.22
2019-02-11T19:55:32.583Z,65.46
2019-02-11T19:58:01.271Z,65.57
2019-02-11T20:00:31.762Z,65.54
2019-02-11T20:03:00.154Z,65.63
2019-02-11T20:05:28.798Z,65.73
2019-02-11T20:07:57.459Z,65.84
2019-02-11T20:10:26.151Z,65.90
2019-02-11T20:12:54.885Z,65.99
2019-02-11T20:15:24.212Z,65.60
2019-02-11T20:17:52.824Z,66.30
2019-02-11T20:20:22.338Z,66.45
2019-02-11T20:22:51.129Z,66.89
2019-02-11T20:25:19.779Z,67.06
2019-02-11T20:27:48.384Z,67.18
2019-02-11T20:30:18.913Z,67.11
2019-02-11T20:32:47.508Z,67.03
2019-02-11T20:35:16.122Z,67.33
2019-02-11T20:37:44.795Z,67.21
2019-02-11T20:40:15.710Z,67.29
2019-02-11T20:42:44.374Z,67.53
2019-02-11T20:45:15.830Z,67.29
2019-02-11T20:47:44.539Z,67.21
2019-02-11T20:50:13.180Z,67.13
2019-02-11T20:52:41.867Z,66.50
2019-02-11T20:55:11.503Z,66.90
2019-02-11T20:57:40.238Z,66.71
2019-02-11T21:00:12.744Z,66.53
2019-02-11T21:02:41.674Z,66.72
2019-02-11T21:05:10.661Z,66.91
2019-02-11T21:07:39.223Z,66.46
2019-02-11T21:10:09.524Z,66.42
2019-02-11T21:12:38.360Z,66.94
2019-02-11T21:15:08.315Z,66.96
2019-02-11T21:17:37.028Z,67.11
2019-02-11T21:20:07.423Z,66.94
2019-02-11T21:22:36.110Z,66.94
2019-02-11T21:25:04.789Z,67.38
2019-02-11T21:27:33.387Z,67.34
2019-02-11T21:30:02.196Z,67.43
2019-02-11T21:32:30.785Z,67.81
2019-02-11T21:34:59.423Z,67.51
2019-02-11T21:37:28.031Z,67.82
2019-02-11T21:39:56.672Z,67.89
2019-02-11T21:42:25.302Z,67.47
2019-02-11T21:44:53.887Z,67.48
2019-02-11T21:47:22.518Z,67.55
2019-02-11T21:49:51.118Z,67.23
2019-02-11T21:52:19.735Z,67.28
2019-02-11T21:54:48.314Z,67.09
2019-02-11T21:57:17.060Z,67.11
2019-02-11T21:59:45.705Z,67.36
2019-02-11T22:02:14.396Z,67.67
2019-02-11T22:04:43.225Z,67.54
2019-02-11T22:07:11.848Z,67.75
2019-02-11T22:09:40.507Z,67.99
2019-02-11T22:12:09.140Z,68.15
2019-02-11T22:14:37.826Z,68.21
2019-02-11T22:17:06.472Z,68.19
2019-02-11T22:19:35.105Z,68.30
2019-02-11T22:22:03.705Z,68.52
2019-02-11T22:24:32.305Z,68.82
2019-02-11T22:27:00.950Z,68.76
2019-02-11T22:29:29.661Z,68.53
2019-02-11T22:31:58.286Z,68.65
2019-02-11T22:34:26.887Z,68.38
2019-02-11T22:36:55.605Z,68.39
2019-02-11T22:39:24.207Z,68.13
2019-02-11T22:41:52.800Z,68.05
2019-02-11T22:44:21.492Z,68.29
2019-02-11T22:46:50.267Z,68.62
2019-02-11T22:49:18.896Z,68.06
2019-02-11T22:51:47.530Z,67.66
2019-02-11T22:54:16.208Z,67.81
2019-02-11T22:56:44.877Z,68.30
2019-02-11T22:59:13.563Z,68.25
2019-02-11T23:01:42.160Z,68.04
2019-02-11T23:04:10.750Z,68.18
2019-02-11T23:06:39.337Z,68.25
2019-02-11T23:09:11.406Z,68.14
2019-02-11T23:11:40.098Z,67.62
2019-02-11T23:14:08.830Z,67.44
2019-02-11T23:16:38.739Z,67.26
2019-02-11T23:19:07.443Z,67.18
2019-02-11T23:21:36.072Z,67.24
2019-02-11T23:24:04.770Z,67.29
2019-02-11T23:26:33.415Z,67.70
2019-02-11T23:29:02.038Z,67.69
2019-02-11T23:31:30.711Z,67.00
2019-02-11T23:33:59.384Z,67.68
2019-02-11T23:36:27.994Z,67.72
2019-02-11T23:38:56.612Z,66.93
2019-02-11T23:41:25.180Z,67.47
2019-02-11T23:43:53.853Z,67.77
2019-02-11T23:46:22.455Z,67.69
2019-02-11T23:48:51.075Z,67.73
2019-02-11T23:51:19.745Z,67.93
2019-02-11T23:53:48.354Z,67.97
2019-02-11T23:56:17.285Z,67.85
2019-02-11T23:58:46.208Z,68.55
